Time,TemperatureF,DewpointF,PressureIn,WindDirection,WindDirectionDegrees,WindSpeedMPH,WindSpeedGustMPH,Humidity,HourlyPrecipIn,Conditions,Clouds,dailyrainin,SoftwareType,DateUTC
2013-02-19 00:02:00,30.0,28.0,-100.00,ESE,119,0.0,1.0,92,-99.99,,,-99.99,,2013-02-19 08:02:00,
2013-02-19 00:11:00,30.0,28.0,-100.00,ESE,119,0.0,1.0,92,-99.99,,,-99.99,,2013-02-19 08:11:00,
2013-02-19 00:20:00,28.0,26.0,-100.00,SE,136,0.0,1.0,92,-99.99,,,-99.99,,2013-02-19 08:20:00,
2013-02-19 01:01:00,28.0,26.0,-100.00,SE,136,0.0,1.0,92,-99.99,,,-99.99,,2013-02-19 09:01:00,
2013-02-19 01:10:00,27.0,27.0,-100.00,SE,138,0.0,1.0,100,-99.99,,,-99.99,,2013-02-19 09:10:00,
2013-02-19 01:11:00,28.0,26.0,-100.00,SE,136,0.0,1.0,92,-99.99,,,-99.99,,2013-02-19 09:11:00,
2013-02-19 02:01:00,27.0,27.0,-100.00,SE,138,0.0,1.0,100,-99.99,,,-99.99,,2013-02-19 10:01:00,
2013-02-19 03:01:00,26.0,26.0,-100.00,SSE,147,0.0,1.0,100,-99.99,,,-99.99,,2013-02-19 11:01:00,
2013-02-19 03:11:00,26.0,26.0,-100.00,SSE,147,0.0,1.0,100,-99.99,,,-99.99,,2013-02-19 11:11:00,
2013-02-19 05:02:00,26.0,-99.9,-100.00,ESE,116,0.0,1.0,-999,-99.99,,,-99.99,,2013-02-19 13:02:00,
2013-02-19 05:11:00,26.0,-99.9,-100.00,ESE,116,0.0,1.0,-999,-99.99,,,-99.99,,2013-02-19 13:11:00,
2013-02-19 06:02:00,27.0,-99.9,-100.00,East,80,0.0,1.0,-999,-99.99,,,-99.99,,2013-02-19 14:02:00,
2013-02-19 06:12:00,27.0,-99.9,-100.00,East,80,0.0,1.0,-999,-99.99,,,-99.99,,2013-02-19 14:12:00,
2013-02-19 07:01:00,27.0,27.0,-100.00,ESE,106,0.0,2.0,100,-99.99,,,-99.99,,2013-02-19 15:01:00,
2013-02-19 07:11:00,27.0,27.0,-100.00,ESE,106,0.0,2.0,100,-99.99,,,-99.99,,2013-02-19 15:11:00,
2013-02-19 08:01:00,27.0,27.0,-100.00,SE,137,0.0,2.0,100,-99.99,,,-99.99,,2013-02-19 16:01:00,
2013-02-19 09:01:00,26.0,26.0,-100.00,ESE,112,0.0,1.0,100,-99.99,,,-99.99,,2013-02-19 17:01:00,
2013-02-19 09:11:00,26.0,26.0,-100.00,ESE,112,0.0,1.0,100,-99.99,,,-99.99,,2013-02-19 17:11:00,
2013-02-19 10:01:00,27.0,27.0,-100.00,SSE,167,0.0,1.0,100,-99.99,,,-99.99,,2013-02-19 18:01:00,
2013-02-19 11:01:00,33.0,28.0,-100.00,SE,134,3.0,7.0,81,-99.99,,,-99.99,,2013-02-19 19:01:00,
2013-02-19 11:11:00,33.0,28.0,-100.00,SE,134,3.0,7.0,81,-99.99,,,-99.99,,2013-02-19 19:11:00,
2013-02-19 12:01:00,36.0,24.0,-100.00,ESE,119,2.0,5.0,61,-99.99,,,-99.99,,2013-02-19 20:01:00,
2013-02-19 12:10:00,39.0,24.0,-100.00,East,97,1.0,3.0,54,-99.99,,,-99.99,,2013-02-19 20:10:00,
2013-02-19 13:02:00,39.0,24.0,-100.00,East,97,1.0,3.0,54,-99.99,,,-99.99,,2013-02-19 21:02:00,
2013-02-19 14:02:00,40.0,21.0,-100.00,SSE,157,2.0,6.0,46,-99.99,,,-99.99,,2013-02-19 22:02:00,
2013-02-19 14:10:00,42.0,22.0,-100.00,South,178,1.0,5.0,44,-99.99,,,-99.99,,2013-02-19 22:10:00,
2013-02-19 15:00:00,41.0,25.0,-100.00,ENE,71,1.0,3.0,52,-99.99,,,-99.99,,2013-02-19 23:00:00,
2013-02-19 15:01:00,42.0,22.0,-100.00,South,178,1.0,5.0,44,-99.99,,,-99.99,,2013-02-19 23:01:00,
2013-02-19 16:10:00,38.0,27.0,-100.00,ESE,109,1.0,3.0,64,-99.99,,,-99.99,,2013-02-20 00:10:00,
2013-02-19 17:02:00,38.0,27.0,-100.00,ESE,109,1.0,3.0,64,-99.99,,,-99.99,,2013-02-20 01:02:00,
2013-02-19 17:20:00,36.0,28.0,-100.00,SE,134,1.0,2.0,72,-99.99,,,-99.99,,2013-02-20 01:20:00,
2013-02-19 18:01:00,36.0,28.0,-100.00,SE,134,1.0,2.0,72,-99.99,,,-99.99,,2013-02-20 02:01:00,
2013-02-19 18:10:00,33.0,26.0,-100.00,SSW,208,0.0,1.0,75,-99.99,,,-99.99,,2013-02-20 02:10:00,
2013-02-19 18:11:00,36.0,28.0,-100.00,SE,134,1.0,2.0,72,-99.99,,,-99.99,,2013-02-20 02:11:00,
2013-02-19 19:01:00,33.0,26.0,-100.00,SSW,208,0.0,1.0,75,-99.99,,,-99.99,,2013-02-20 03:01:00,
2013-02-19 20:01:00,29.0,24.0,-100.00,East,99,0.0,1.0,81,-99.99,,,-99.99,,2013-02-20 04:01:00,
2013-02-19 20:10:00,28.0,24.0,-100.00,East,80,0.0,1.0,84,-99.99,,,-99.99,,2013-02-20 04:10:00,
2013-02-19 20:11:00,29.0,24.0,-100.00,East,99,0.0,1.0,81,-99.99,,,-99.99,,2013-02-20 04:11:00,
2013-02-19 21:02:00,28.0,24.0,-100.00,East,80,0.0,1.0,84,-99.99,,,-99.99,,2013-02-20 05:02:00,
2013-02-19 22:01:00,27.0,24.0,-100.00,ENE,68,0.0,2.0,88,-99.99,,,-99.99,,2013-02-20 06:01:00,
2013-02-19 22:11:00,27.0,24.0,-100.00,ENE,68,0.0,2.0,88,-99.99,,,-99.99,,2013-02-20 06:11:00,
2013-02-19 23:00:00,26.0,24.0,-100.00,East,79,0.0,1.0,92,-99.99,,,-99.99,,2013-02-20 07:00:00,
2013-02-19 23:01:00,26.0,24.0,-100.00,East,95,0.0,1.0,92,-99.99,,,-99.99,,2013-02-20 07:01:00,